createdAt,value
2016-06-22T00:00:14.764Z,62.47
2016-06-22T00:01:13.694Z,62.18
2016-06-22T00:02:13.801Z,62.57
2016-06-22T00:03:14.349Z,62.37
2016-06-22T00:04:14.327Z,62.28
2016-06-22T00:05:13.714Z,62.57
2016-06-22T00:06:13.722Z,62.28
2016-06-22T00:07:14.351Z,62.57
2016-06-22T00:08:13.738Z,62.18
2016-06-22T00:09:14.364Z,62.18
2016-06-22T00:10:14.360Z,62.37
2016-06-22T00:11:15.389Z,62.37
2016-06-22T00:12:13.772Z,61.51
2016-06-22T00:13:14.516Z,62.28
2016-06-22T00:14:14.382Z,62.47
2016-06-22T00:15:14.400Z,61.51
2016-06-22T00:16:13.774Z,62.57
2016-06-22T00:17:14.410Z,61.6
2016-06-22T00:18:13.789Z,61.7
2016-06-22T00:19:13.797Z,62.08
2016-06-22T00:20:13.801Z,61.6
2016-06-22T00:21:14.457Z,61.83
2016-06-22T00:22:15.104Z,61.7
2016-06-22T00:23:14.441Z,61.8
2016-06-22T00:24:14.845Z,61.41
2016-06-22T00:25:14.443Z,61.54
2016-06-22T00:26:14.457Z,61.41
2016-06-22T00:27:13.839Z,61.6
2016-06-22T00:28:14.469Z,61.8
2016-06-22T00:29:14.471Z,61.02
2016-06-22T00:30:13.875Z,61.12
2016-06-22T00:31:14.481Z,61.12
2016-06-22T00:32:14.499Z,61.02
2016-06-22T00:33:15.467Z,61.22
2016-06-22T00:34:13.878Z,60.93
2016-06-22T00:35:15.405Z,60.93
2016-06-22T00:36:14.501Z,60.93
2016-06-22T00:37:15.575Z,60.76
2016-06-22T00:38:13.914Z,61.22
2016-06-22T00:39:13.914Z,60.73
2016-06-22T00:40:14.535Z,61.02
2016-06-22T00:41:14.535Z,61.12
2016-06-22T00:42:14.571Z,60.64
2016-06-22T00:43:14.554Z,60.93
2016-06-22T00:44:14.562Z,61.02
2016-06-22T00:45:14.572Z,60.83
2016-06-22T00:46:15.621Z,60.64
2016-06-22T00:47:14.571Z,60.54
2016-06-22T00:48:14.590Z,60.44
2016-06-22T00:49:14.590Z,60.83
2016-06-22T00:50:14.620Z,60.64
2016-06-22T00:51:14.601Z,60.73
2016-06-22T00:52:14.604Z,60.83
2016-06-22T00:53:14.625Z,60.35
2016-06-22T00:54:14.615Z,60.93
2016-06-22T00:55:14.609Z,60.25
2016-06-22T00:56:14.626Z,60.16
2016-06-22T00:57:14.629Z,60.73
2016-06-22T00:58:14.630Z,60.16
2016-06-22T00:59:14.634Z,60.64
2016-06-22T01:00:14.655Z,60.73
2016-06-22T01:01:14.653Z,60.83
2016-06-22T01:02:14.650Z,59.96
2016-06-22T01:03:14.044Z,60.35
2016-06-22T01:04:14.046Z,59.96
2016-06-22T01:05:14.679Z,60.83
2016-06-22T01:06:14.831Z,60.64
2016-06-22T01:07:14.067Z,60.73
2016-06-22T01:08:14.695Z,60.44
2016-06-22T01:09:14.084Z,60.35
2016-06-22T01:10:14.079Z,60.44
2016-06-22T01:11:14.705Z,60.44
2016-06-22T01:12:14.710Z,60.54
2016-06-22T01:13:14.711Z,60.06
2016-06-22T01:14:14.723Z,60.35
2016-06-22T01:15:14.111Z,60.35
2016-06-22T01:16:14.727Z,59.96
2016-06-22T01:17:15.260Z,60.35
2016-06-22T01:18:14.749Z,60.25
2016-06-22T01:19:14.230Z,60.35
2016-06-22T01:20:14.750Z,60.35
2016-06-22T01:21:14.763Z,60.44
2016-06-22T01:22:14.771Z,60.25
2016-06-22T01:23:14.770Z,60.54
2016-06-22T01:24:14.161Z,60.44
2016-06-22T01:25:14.165Z,60.16
2016-06-22T01:26:14.789Z,60.06
2016-06-22T01:27:14.785Z,60.06
2016-06-22T01:28:14.171Z,60.06
2016-06-22T01:29:14.798Z,60.16
2016-06-22T01:30:14.443Z,60.35
2016-06-22T01:31:14.191Z,60.06
2016-06-22T01:32:14.821Z,59.86
2016-06-22T01:33:14.826Z,60.06
2016-06-22T01:34:14.834Z,59.96
2016-06-22T01:35:14.850Z,59.96
2016-06-22T01:36:14.840Z,60.44
2016-06-22T01:37:14.227Z,60.06
2016-06-22T01:38:14.850Z,59.86
2016-06-22T01:39:15.913Z,60.06
2016-06-22T01:40:14.860Z,59.96
2016-06-22T01:41:15.487Z,60.16
2016-06-22T01:42:14.248Z,60.25
2016-06-22T01:43:14.260Z,60.25
2016-06-22T01:44:14.265Z,59.96
2016-06-22T01:45:14.270Z,59.96
2016-06-22T01:46:14.272Z,59.96
2016-06-22T01:47:14.906Z,59.96
2016-06-22T01:48:14.902Z,60.16
2016-06-22T01:49:14.905Z,60.35
2016-06-22T01:50:16.047Z,60.25
2016-06-22T01:51:14.919Z,60.35
2016-06-22T01:52:15.771Z,60.16
2016-06-22T01:53:14.937Z,59.86
2016-06-22T01:54:14.316Z,59.77
2016-06-22T01:55:14.935Z,59.96
2016-06-22T01:56:14.333Z,59.77
2016-06-22T01:57:14.331Z,59.77
2016-06-22T01:58:14.335Z,59.67
2016-06-22T01:59:14.965Z,59.86
2016-06-22T02:00:14.654Z,60.16
2016-06-22T02:01:14.970Z,59.67
2016-06-22T02:02:14.354Z,59.86
2016-06-22T02:03:15.881Z,59.58
2016-06-22T02:04:14.982Z,59.96
2016-06-22T02:05:14.995Z,59.67
2016-06-22T02:06:14.383Z,59.86
2016-06-22T02:07:14.997Z,59.96
2016-06-22T02:08:15.012Z,59.96
2016-06-22T02:09:15.017Z,59.86
2016-06-22T02:10:15.008Z,59.77
2016-06-22T02:11:14.410Z,59.86
2016-06-22T02:12:15.029Z,59.77
2016-06-22T02:13:14.412Z,59.77
2016-06-22T02:14:16.186Z,59.96
2016-06-22T02:15:15.044Z,59.48
2016-06-22T02:16:15.050Z,59.67
2016-06-22T02:17:15.080Z,59.67
2016-06-22T02:18:15.058Z,59.58
2016-06-22T02:19:14.442Z,59.86
2016-06-22T02:20:15.067Z,59.38
2016-06-22T02:21:14.457Z,59.48
2016-06-22T02:22:14.460Z,59.28
2016-06-22T02:23:14.468Z,59.48
2016-06-22T02:24:15.090Z,59.58
2016-06-22T02:25:16.026Z,59.67
2016-06-22T02:26:15.110Z,59.38
2016-06-22T02:27:15.112Z,59.28
2016-06-22T02:28:14.491Z,59.28
2016-06-22T02:29:15.117Z,59.67
2016-06-22T02:30:15.123Z,59.19
2016-06-22T02:31:15.139Z,59
2016-06-22T02:32:15.134Z,58.9
2016-06-22T02:33:15.142Z,59.28
2016-06-22T02:34:15.636Z,59.09
2016-06-22T02:35:15.149Z,59.28
2016-06-22T02:36:15.147Z,59.19
2016-06-22T02:37:14.534Z,59.09
2016-06-22T02:38:15.165Z,59.19
2016-06-22T02:39:15.167Z,59.38
2016-06-22T02:40:14.564Z,59.09
2016-06-22T02:41:14.563Z,59.19
2016-06-22T02:42:15.186Z,59.28
2016-06-22T02:43:14.565Z,58.7
2016-06-22T02:44:14.596Z,59.38
2016-06-22T02:45:15.898Z,59.28
2016-06-22T02:46:14.579Z,59.19
2016-06-22T02:47:15.220Z,59.38
2016-06-22T02:48:15.218Z,59.28
2016-06-22T02:49:14.598Z,59.38
2016-06-22T02:50:15.220Z,59.28
2016-06-22T02:51:15.233Z,59.28
2016-06-22T02:52:15.233Z,59.28
2016-06-22T02:53:15.231Z,59.28
2016-06-22T02:54:15.246Z,59.28
2016-06-22T02:55:15.243Z,59.28
2016-06-22T02:56:16.058Z,59.28
2016-06-22T02:57:14.651Z,59.38
2016-06-22T02:58:15.261Z,59.38
2016-06-22T02:59:15.271Z,59.19
2016-06-22T03:00:15.284Z,59.48
2016-06-22T03:01:14.653Z,59.09
2016-06-22T03:02:14.667Z,59.28
2016-06-22T03:03:15.289Z,59.38
2016-06-22T03:04:15.289Z,59.38
2016-06-22T03:05:14.678Z,59.48
2016-06-22T03:06:14.695Z,59.09
2016-06-22T03:07:16.359Z,59.48
2016-06-22T03:08:14.703Z,58.9
2016-06-22T03:09:15.455Z,59.38
2016-06-22T03:10:14.711Z,59.09
2016-06-22T03:11:15.338Z,59.48
2016-06-22T03:12:15.346Z,59.19
2016-06-22T03:13:15.340Z,59.48
2016-06-22T03:14:14.727Z,59.28
2016-06-22T03:15:15.362Z,59.38
2016-06-22T03:16:15.366Z,58.61
2016-06-22T03:17:15.367Z,59.38
2016-06-22T03:18:15.858Z,59
2016-06-22T03:19:15.375Z,59.48
2016-06-22T03:20:15.622Z,59.09
2016-06-22T03:21:15.391Z,59.19
2016-06-22T03:22:15.391Z,58.42
2016-06-22T03:23:15.402Z,59.09
2016-06-22T03:24:15.401Z,58.32
2016-06-22T03:25:14.787Z,58.42
2016-06-22T03:26:14.792Z,58.32
2016-06-22T03:27:15.426Z,58.61
2016-06-22T03:28:15.427Z,58.51
2016-06-22T03:29:14.809Z,58.7
2016-06-22T03:30:15.443Z,58.7
2016-06-22T03:31:15.921Z,58.42
2016-06-22T03:32:15.467Z,58.51
2016-06-22T03:33:15.469Z,58.42
2016-06-22T03:34:15.465Z,58.51
2016-06-22T03:35:14.845Z,58.32
2016-06-22T03:36:15.485Z,58.32
2016-06-22T03:37:14.854Z,58.8
2016-06-22T03:38:15.483Z,58.61
2016-06-22T03:39:15.487Z,58.22
2016-06-22T03:40:16.432Z,58.32
2016-06-22T03:41:15.495Z,58.51
2016-06-22T03:42:14.889Z,58.61
2016-06-22T03:43:15.505Z,58.7
2016-06-22T03:44:14.896Z,58.22
2016-06-22T03:45:15.529Z,58.32
2016-06-22T03:46:15.535Z,58.42
2016-06-22T03:47:15.537Z,58.7
2016-06-22T03:48:14.918Z,58.22
2016-06-22T03:49:15.789Z,58.42
2016-06-22T03:50:15.556Z,58.12
2016-06-22T03:51:15.562Z,58.61
2016-06-22T03:52:15.093Z,58.22
2016-06-22T03:53:16.589Z,58.12
2016-06-22T03:54:15.579Z,58.32
2016-06-22T03:55:15.578Z,58.42
2016-06-22T03:56:15.585Z,58.22
2016-06-22T03:57:14.978Z,58.12
2016-06-22T03:58:14.975Z,58.32
2016-06-22T03:59:14.987Z,58.12
2016-06-22T04:00:16.166Z,58.22
2016-06-22T04:01:15.623Z,58.22
2016-06-22T04:02:15.619Z,57.93
2016-06-22T04:03:15.614Z,58.32
2016-06-22T04:04:15.634Z,58.12
2016-06-22T04:05:15.630Z,58.42
2016-06-22T04:06:15.664Z,58.32
2016-06-22T04:07:15.646Z,58.42
2016-06-22T04:08:15.662Z,58.12
2016-06-22T04:09:15.038Z,58.22
2016-06-22T04:10:15.050Z,58.51
2016-06-22T04:11:16.189Z,58.22
2016-06-22T04:12:15.669Z,58.32
2016-06-22T04:13:15.835Z,58.32
2016-06-22T04:14:15.691Z,58.03
2016-06-22T04:15:15.688Z,58.61
2016-06-22T04:16:15.076Z,58.12
2016-06-22T04:17:15.704Z,58.61
2016-06-22T04:18:15.089Z,57.93
2016-06-22T04:19:15.713Z,57.84
2016-06-22T04:20:15.720Z,58.22
2016-06-22T04:21:15.730Z,58.12
2016-06-22T04:22:15.118Z,58.12
2016-06-22T04:23:15.741Z,58.22
2016-06-22T04:24:16.438Z,57.93
2016-06-22T04:25:15.750Z,58.03
2016-06-22T04:26:15.754Z,57.93
2016-06-22T04:27:15.142Z,58.12
2016-06-22T04:28:15.763Z,57.84
2016-06-22T04:29:15.775Z,57.74
2016-06-22T04:30:15.169Z,57.74
2016-06-22T04:31:15.777Z,57.74
2016-06-22T04:32:15.795Z,57.84
2016-06-22T04:33:15.797Z,57.93
2016-06-22T04:34:15.179Z,57.84
2016-06-22T04:35:16.798Z,57.84
2016-06-22T04:36:15.201Z,57.74
2016-06-22T04:37:15.206Z,58.03
2016-06-22T04:38:15.206Z,57.93
2016-06-22T04:39:15.831Z,57.84
2016-06-22T04:40:15.833Z,58.51
2016-06-22T04:41:15.847Z,57.93
2016-06-22T04:42:15.846Z,58.12
2016-06-22T04:43:15.230Z,57.93
2016-06-22T04:44:15.436Z,58.32
2016-06-22T04:45:15.861Z,57.93
2016-06-22T04:46:15.861Z,58.22
2016-06-22T04:47:15.866Z,57.93
2016-06-22T04:48:15.886Z,57.93
2016-06-22T04:49:15.876Z,58.03
2016-06-22T04:50:15.884Z,57.74
2016-06-22T04:51:15.897Z,57.84
2016-06-22T04:52:15.950Z,58.03
2016-06-22T04:53:15.920Z,57.74
2016-06-22T04:54:15.912Z,58.03
2016-06-22T04:55:15.899Z,57.74
2016-06-22T04:56:15.919Z,57.74
2016-06-22T04:57:15.938Z,57.93
2016-06-22T04:58:15.362Z,58.03
2016-06-22T04:59:15.321Z,57.96
2016-06-22T05:00:15.972Z,57.84
2016-06-22T05:01:15.332Z,57.64
2016-06-22T05:02:15.958Z,57.77
2016-06-22T05:03:15.351Z,58.22
2016-06-22T05:04:15.994Z,57.54
2016-06-22T05:05:15.973Z,57.45
2016-06-22T05:06:16.466Z,57.16
2016-06-22T05:07:15.980Z,56.99
2016-06-22T05:08:16.041Z,57.06
2016-06-22T05:09:15.377Z,56.99
2016-06-22T05:10:15.385Z,57.29
2016-06-22T05:11:15.385Z,57.09
2016-06-22T05:12:15.396Z,57.29
2016-06-22T05:13:16.013Z,56.99
2016-06-22T05:14:16.023Z,57.09
2016-06-22T05:15:15.415Z,57.09
2016-06-22T05:16:16.029Z,57.29
2016-06-22T05:17:16.837Z,57.35
2016-06-22T05:18:15.429Z,56.96
2016-06-22T05:19:16.348Z,56.96
2016-06-22T05:20:15.438Z,57.35
2016-06-22T05:21:16.060Z,57.45
2016-06-22T05:22:16.060Z,57.64
2016-06-22T05:23:16.069Z,57.54
2016-06-22T05:24:16.081Z,57.54
2016-06-22T05:25:16.085Z,57.45
2016-06-22T05:26:16.089Z,57.64
2016-06-22T05:27:15.705Z,57.35
2016-06-22T05:28:15.487Z,57.35
2016-06-22T05:29:16.106Z,57.35
2016-06-22T05:30:16.918Z,57.35
2016-06-22T05:31:15.496Z,57.35
2016-06-22T05:32:15.510Z,57.64
2016-06-22T05:33:16.143Z,57.54
2016-06-22T05:34:16.126Z,57.54
2016-06-22T05:35:15.529Z,57.84
2016-06-22T05:36:16.145Z,57.26
2016-06-22T05:37:15.528Z,57.54
2016-06-22T05:38:15.538Z,57.06
2016-06-22T05:39:15.541Z,57.35
2016-06-22T05:40:15.548Z,56.87
2016-06-22T05:41:16.836Z,57.35
2016-06-22T05:42:15.553Z,57.48
2016-06-22T05:43:15.562Z,56.99
2016-06-22T05:44:16.193Z,57.09
2016-06-22T05:45:16.184Z,57.45
2016-06-22T05:46:16.200Z,57.35
2016-06-22T05:47:16.251Z,56.99
2016-06-22T05:48:16.213Z,56.9
2016-06-22T05:49:16.215Z,56.61
2016-06-22T05:50:15.609Z,57.09
2016-06-22T05:51:15.608Z,56.8
2016-06-22T05:52:17.253Z,56.99
2016-06-22T05:53:16.239Z,56.32
2016-06-22T05:54:16.259Z,56.41
2016-06-22T05:55:16.244Z,56.32
2016-06-22T05:56:16.258Z,56.13
2016-06-22T05:57:15.639Z,55.47
2016-06-22T05:58:16.267Z,55.38
2016-06-22T05:59:16.340Z,55.47
2016-06-22T06:00:15.666Z,55.93
2016-06-22T06:01:16.442Z,55.57
2016-06-22T06:02:15.683Z,55.19
2016-06-22T06:03:15.679Z,55.09
2016-06-22T06:04:16.314Z,55.67
2016-06-22T06:05:16.318Z,55.29
2016-06-22T06:06:16.328Z,55.87
2016-06-22T06:07:16.331Z,54.99
2016-06-22T06:08:15.727Z,54.71
2016-06-22T06:09:16.346Z,54.8
2016-06-22T06:10:16.365Z,54.8
2016-06-22T06:11:16.366Z,54.99
2016-06-22T06:12:16.767Z,54.8
2016-06-22T06:13:16.389Z,54.99
2016-06-22T06:14:16.386Z,55.77
2016-06-22T06:15:16.391Z,55.47
2016-06-22T06:16:16.399Z,55.29
2016-06-22T06:17:16.419Z,54.99
2016-06-22T06:18:16.418Z,54.71
2016-06-22T06:19:15.813Z,54.41
2016-06-22T06:20:16.431Z,54.63
2016-06-22T06:21:16.439Z,53.67
2016-06-22T06:22:15.836Z,53.86
2016-06-22T06:23:16.543Z,53.79
2016-06-22T06:24:16.483Z,53.67
2016-06-22T06:25:16.257Z,53.5
2016-06-22T06:26:15.858Z,53.96
2016-06-22T06:27:16.487Z,53.77
2016-06-22T06:28:16.497Z,54.44
2016-06-22T06:29:15.879Z,54.25
2016-06-22T06:30:16.516Z,53.77
2016-06-22T06:31:16.509Z,53.96
2016-06-22T06:32:15.914Z,53.38
2016-06-22T06:33:15.918Z,53.96
2016-06-22T06:34:17.630Z,54.05
2016-06-22T06:35:16.573Z,53.77
2016-06-22T06:36:16.719Z,53.67
2016-06-22T06:37:15.941Z,54.25
2016-06-22T06:38:16.604Z,54.05
2016-06-22T06:39:16.581Z,53.57
2016-06-22T06:40:16.585Z,52.92
2016-06-22T06:41:16.597Z,53.41
2016-06-22T06:42:16.600Z,53.02
2016-06-22T06:43:16.001Z,53.02
2016-06-22T06:44:16.010Z,52.92
2016-06-22T06:45:17.348Z,53.02
2016-06-22T06:46:16.642Z,52.53
2016-06-22T06:47:17.151Z,52.34
2016-06-22T06:48:16.040Z,53.02
2016-06-22T06:49:16.659Z,53.02
2016-06-22T06:50:16.056Z,53.21
2016-06-22T06:51:16.058Z,53.21
2016-06-22T06:52:16.687Z,52.53
2016-06-22T06:53:16.127Z,52.44
2016-06-22T06:54:16.722Z,52.17
2016-06-22T06:55:16.709Z,51.78
2016-06-22T06:56:17.798Z,51.68
2016-06-22T06:57:16.736Z,51.52
2016-06-22T06:58:16.126Z,51.59
2016-06-22T06:59:16.797Z,51.13
2016-06-22T07:00:16.762Z,51.13
2016-06-22T07:01:17.018Z,50.94
2016-06-22T07:02:16.158Z,50.55
2016-06-22T07:03:16.176Z,50.74
2016-06-22T07:04:16.176Z,50.74
2016-06-22T07:05:16.808Z,50.74
2016-06-22T07:06:16.195Z,50.74
2016-06-22T07:07:16.829Z,50.26
2016-06-22T07:08:16.223Z,50.35
2016-06-22T07:09:16.238Z,50.07
2016-06-22T07:10:16.854Z,50.26
2016-06-22T07:11:16.869Z,50.07
2016-06-22T07:12:16.258Z,50.07
2016-06-22T07:13:16.266Z,50.55
2016-06-22T07:14:16.278Z,50.65
2016-06-22T07:15:16.287Z,50.65
2016-06-22T07:16:16.905Z,50.35
2016-06-22T07:17:17.090Z,49.97
2016-06-22T07:18:16.935Z,50.35
2016-06-22T07:19:16.362Z,50.07
2016-06-22T07:20:16.954Z,50.35
2016-06-22T07:21:16.645Z,50.84
2016-06-22T07:22:16.986Z,51.23
2016-06-22T07:23:16.370Z,50.84
2016-06-22T07:24:16.991Z,50.84
2016-06-22T07:25:16.429Z,50.74
2016-06-22T07:26:17.050Z,50.07
2016-06-22T07:27:17.485Z,50.26
2016-06-22T07:28:17.029Z,51.23
2016-06-22T07:29:17.018Z,51.23
2016-06-22T07:30:16.681Z,51.23
2016-06-22T07:31:16.541Z,51.52
2016-06-22T07:32:17.175Z,51.88
2016-06-22T07:33:17.093Z,51.88
2016-06-22T07:34:16.639Z,52.17
2016-06-22T07:35:16.595Z,51.68
2016-06-22T07:36:17.458Z,51.98
2016-06-22T07:37:17.117Z,52.17
2016-06-22T07:38:16.496Z,52.44
2016-06-22T07:39:17.131Z,52.46
2016-06-22T07:40:17.890Z,52.34
2016-06-22T07:41:17.152Z,52.05
2016-06-22T07:42:16.959Z,51.59
2016-06-22T07:43:17.235Z,52.56
2016-06-22T07:44:17.175Z,51.59
2016-06-22T07:45:17.338Z,51.2
2016-06-22T07:46:17.182Z,51.59
2016-06-22T07:47:17.203Z,51.98
2016-06-22T07:48:17.199Z,51.3
2016-06-22T07:49:17.283Z,51.3
2016-06-22T07:50:17.217Z,51.3
2016-06-22T07:51:16.603Z,51.52
2016-06-22T07:52:16.618Z,51.4
2016-06-22T07:53:18.050Z,51.59
2016-06-22T07:54:16.631Z,52.08
2016-06-22T07:55:17.265Z,51.4
2016-06-22T07:56:16.637Z,51.4
2016-06-22T07:57:17.273Z,51.5
2016-06-22T07:58:16.671Z,51.59
2016-06-22T07:59:17.293Z,51.78
2016-06-22T08:00:17.295Z,52.08
2016-06-22T08:01:16.728Z,52.36
2016-06-22T08:02:17.305Z,52.46
2016-06-22T08:03:17.326Z,53.02
2016-06-22T08:04:18.442Z,53.02
2016-06-22T08:05:16.704Z,52.82
2016-06-22T08:06:16.711Z,53.02
2016-06-22T08:07:17.339Z,52.66
2016-06-22T08:08:17.675Z,52.36
2016-06-22T08:09:17.937Z,52.66
2016-06-22T08:10:17.759Z,52.95
2016-06-22T08:11:17.606Z,53.41
2016-06-22T08:12:17.105Z,53.31
2016-06-22T08:13:17.730Z,52.95
2016-06-22T08:14:17.773Z,53.04
2016-06-22T08:15:18.542Z,53.59
2016-06-22T08:16:17.129Z,53.99
2016-06-22T08:17:17.132Z,53.69
2016-06-22T08:18:18.134Z,53.69
2016-06-22T08:19:17.676Z,53.99
2016-06-22T08:20:17.762Z,53.89
2016-06-22T08:21:17.315Z,53.69
2016-06-22T08:22:17.263Z,53.89
2016-06-22T08:23:17.902Z,53.69
2016-06-22T08:24:18.403Z,53.89
2016-06-22T08:25:17.794Z,54.08
2016-06-22T08:26:17.867Z,54.17
2016-06-22T08:27:17.310Z,53.99
2016-06-22T08:28:17.945Z,53.59
2016-06-22T08:29:17.979Z,53.59
2016-06-22T08:30:17.968Z,53.79
2016-06-22T08:31:17.751Z,53.99
2016-06-22T08:32:17.762Z,53.89
2016-06-22T08:33:17.710Z,53.89
2016-06-22T08:34:17.991Z,54.08
2016-06-22T08:35:18.904Z,53.59
2016-06-22T08:36:17.969Z,53.69
2016-06-22T08:37:18.098Z,53.69
2016-06-22T08:38:17.969Z,54.08
2016-06-22T08:39:18.378Z,53.69
2016-06-22T08:40:18.021Z,53.79
2016-06-22T08:41:17.579Z,53.69
2016-06-22T08:42:16.979Z,53.69
2016-06-22T08:43:17.600Z,53.99
2016-06-22T08:44:17.603Z,54.47
2016-06-22T08:45:17.610Z,53.79
2016-06-22T08:46:18.512Z,53.79
2016-06-22T08:47:17.631Z,54.47
2016-06-22T08:48:18.355Z,54.17
2016-06-22T08:49:17.661Z,54.27
2016-06-22T08:50:17.653Z,54.75
2016-06-22T08:51:17.648Z,54.37
2016-06-22T08:52:17.663Z,54.27
2016-06-22T08:53:17.684Z,54.08
2016-06-22T08:54:17.054Z,53.89
2016-06-22T08:55:17.418Z,53.99
2016-06-22T08:56:17.687Z,53.89
2016-06-22T08:57:17.698Z,53.89
2016-06-22T08:58:17.102Z,53.79
2016-06-22T08:59:17.085Z,53.99
2016-06-22T09:00:17.110Z,54.08
2016-06-22T09:01:17.109Z,54.15
2016-06-22T09:02:17.779Z,53.89
2016-06-22T09:03:17.741Z,53.79
2016-06-22T09:04:17.744Z,53.79
2016-06-22T09:05:17.760Z,54.15
2016-06-22T09:06:18.256Z,54.35
2016-06-22T09:07:17.158Z,54.08
2016-06-22T09:08:18.150Z,53.96
2016-06-22T09:09:17.783Z,54.15
2016-06-22T09:10:17.800Z,53.89
2016-06-22T09:11:17.793Z,53.89
2016-06-22T09:12:17.181Z,53.69
2016-06-22T09:13:17.807Z,54.85
2016-06-22T09:14:17.194Z,54.66
2016-06-22T09:15:17.812Z,54.27
2016-06-22T09:16:17.828Z,54.37
2016-06-22T09:17:18.691Z,54.75
2016-06-22T09:18:17.847Z,55.05
2016-06-22T09:19:17.241Z,55.02
2016-06-22T09:20:17.892Z,55.53
2016-06-22T09:21:17.865Z,55.41
2016-06-22T09:22:17.249Z,55.82
2016-06-22T09:23:17.881Z,56.02
2016-06-22T09:24:17.882Z,55.92
2016-06-22T09:25:17.902Z,55.15
2016-06-22T09:26:17.889Z,55.24
2016-06-22T09:27:17.901Z,55.15
2016-06-22T09:28:17.914Z,55.02
2016-06-22T09:29:17.298Z,55.05
2016-06-22T09:30:19.022Z,54.66
2016-06-22T09:31:17.303Z,54.75
2016-06-22T09:32:17.934Z,54.66
2016-06-22T09:33:17.950Z,54.66
2016-06-22T09:34:18.055Z,54.57
2016-06-22T09:35:17.679Z,54.83
2016-06-22T09:36:17.344Z,54.75
2016-06-22T09:37:17.969Z,55.05
2016-06-22T09:38:17.981Z,54.63
2016-06-22T09:39:17.985Z,54.57
2016-06-22T09:40:18.014Z,54.85
2016-06-22T09:41:17.386Z,54.44
2016-06-22T09:42:17.396Z,54.75
2016-06-22T09:43:18.017Z,54.95
2016-06-22T09:44:17.431Z,55.05
2016-06-22T09:45:18.039Z,54.44
2016-06-22T09:46:18.038Z,54.37
2016-06-22T09:47:18.054Z,54.35
2016-06-22T09:48:18.045Z,54.53
2016-06-22T09:49:18.050Z,54.53
2016-06-22T09:50:19.067Z,54.47
2016-06-22T09:51:18.063Z,54.57
2016-06-22T09:52:18.683Z,54.44
2016-06-22T09:53:18.088Z,54.75
2016-06-22T09:54:18.086Z,54.35
2016-06-22T09:55:17.489Z,54.66
2016-06-22T09:56:18.102Z,54.66
2016-06-22T09:57:18.107Z,54.57
2016-06-22T09:58:18.111Z,54.53
2016-06-22T09:59:17.513Z,54.37
2016-06-22T10:00:18.130Z,54.57
2016-06-22T10:01:18.131Z,54.27
2016-06-22T10:02:17.601Z,54.47
2016-06-22T10:03:19.344Z,54.37
2016-06-22T10:04:18.237Z,54.57
2016-06-22T10:05:17.546Z,54.27
2016-06-22T10:06:18.171Z,54.37
2016-06-22T10:07:18.176Z,54.53
2016-06-22T10:08:17.561Z,54.47
2016-06-22T10:09:17.572Z,54.63
2016-06-22T10:10:17.614Z,54.35
2016-06-22T10:11:17.586Z,54.53
2016-06-22T10:12:18.308Z,54.44
2016-06-22T10:13:18.225Z,54.83
2016-06-22T10:14:17.602Z,54.57
2016-06-22T10:15:18.230Z,54.75
2016-06-22T10:16:18.235Z,54.25
2016-06-22T10:17:18.237Z,54.27
2016-06-22T10:18:17.635Z,53.79
2016-06-22T10:19:18.285Z,53.69
2016-06-22T10:20:18.283Z,53.99
2016-06-22T10:21:17.649Z,53.69
2016-06-22T10:22:18.276Z,53.5
2016-06-22T10:23:19.230Z,53.89
2016-06-22T10:24:18.277Z,53.79
2016-06-22T10:25:17.727Z,53.99
2016-06-22T10:26:18.298Z,54.08
2016-06-22T10:27:18.306Z,53.99
2016-06-22T10:28:18.335Z,54.08
2016-06-22T10:29:17.697Z,53.69
2016-06-22T10:30:18.335Z,53.69
2016-06-22T10:31:17.753Z,53.69
2016-06-22T10:32:17.721Z,53.79
2016-06-22T10:33:18.347Z,53.79
2016-06-22T10:34:19.305Z,53.99
2016-06-22T10:35:18.375Z,53.79
2016-06-22T10:36:18.373Z,53.79
2016-06-22T10:37:18.370Z,53.79
2016-06-22T10:38:17.765Z,53.79
2016-06-22T10:39:18.386Z,53.79
2016-06-22T10:40:18.393Z,53.79
2016-06-22T10:41:18.412Z,53.69
2016-06-22T10:42:18.419Z,54.05
2016-06-22T10:44:18.422Z,53.86
2016-06-22T10:45:17.825Z,54.08
2016-06-22T10:46:18.439Z,53.69
2016-06-22T10:47:18.440Z,53.67
2016-06-22T10:48:17.832Z,53.69
2016-06-22T10:49:19.153Z,53.89
2016-06-22T10:50:17.843Z,53.96
2016-06-22T10:51:18.482Z,53.99
2016-06-22T10:52:17.854Z,54.57
2016-06-22T10:53:18.487Z,54.66
2016-06-22T10:54:17.894Z,54.73
2016-06-22T10:55:18.505Z,54.57
2016-06-22T10:56:18.517Z,54.35
2016-06-22T10:57:18.514Z,54.73
2016-06-22T10:58:18.514Z,54.35
2016-06-22T10:59:18.517Z,54.95
2016-06-22T11:00:19.014Z,54.73
2016-06-22T11:01:18.546Z,54.66
2016-06-22T11:02:17.922Z,54.83
2016-06-22T11:03:18.558Z,54.73
2016-06-22T11:04:17.940Z,54.63
2016-06-22T11:05:18.572Z,55.24
2016-06-22T11:06:18.622Z,55.24
2016-06-22T11:07:18.629Z,55.05
2016-06-22T11:08:18.585Z,54.66
2016-06-22T11:09:17.977Z,54.85
2016-06-22T11:10:18.591Z,54.63
2016-06-22T11:11:18.739Z,54.95
2016-06-22T11:12:18.603Z,54.75
2016-06-22T11:13:17.999Z,54.95
2016-06-22T11:14:18.007Z,55.24
2016-06-22T11:15:18.011Z,55.34
2016-06-22T11:16:18.016Z,55.34
2016-06-22T11:17:18.031Z,55.82
2016-06-22T11:18:18.025Z,55.92
2016-06-22T11:19:18.654Z,55.82
2016-06-22T11:20:19.462Z,55.53
2016-06-22T11:21:18.670Z,56.7
2016-06-22T11:22:18.673Z,55.73
2016-06-22T11:23:18.685Z,56.5
2016-06-22T11:24:18.684Z,56.5
2016-06-22T11:25:18.705Z,55.82
2016-06-22T11:26:18.723Z,56.02
2016-06-22T11:27:18.103Z,56.5
2016-06-22T11:28:18.711Z,56.79
2016-06-22T11:29:18.100Z,56.5
2016-06-22T11:30:18.731Z,56.11
2016-06-22T11:31:18.738Z,56.47
2016-06-22T11:32:18.733Z,56.3
2016-06-22T11:33:18.951Z,56.4
2016-06-22T11:34:18.752Z,55.73
2016-06-22T11:35:18.145Z,55.73
2016-06-22T11:36:18.153Z,55.82
2016-06-22T11:37:18.771Z,55.63
2016-06-22T11:38:18.166Z,55.63
2016-06-22T11:39:18.786Z,55.82
2016-06-22T11:40:18.808Z,55.92
2016-06-22T11:41:18.179Z,55.82
2016-06-22T11:42:18.810Z,55.63
2016-06-22T11:43:18.190Z,55.92
2016-06-22T11:44:18.835Z,56.11
2016-06-22T11:45:18.825Z,56.11
2016-06-22T11:46:19.737Z,55.92
2016-06-22T11:47:18.835Z,55.82
2016-06-22T11:48:18.219Z,56.02
2016-06-22T11:49:18.851Z,55.43
2016-06-22T11:50:18.254Z,55.43
2016-06-22T11:51:18.866Z,55.82
2016-06-22T11:52:18.256Z,55.73
2016-06-22T11:53:18.258Z,55.63
2016-06-22T11:54:18.266Z,55.34
2016-06-22T11:55:18.898Z,55.43
2016-06-22T11:56:18.893Z,55.6
2016-06-22T11:57:19.855Z,55.63
2016-06-22T11:58:18.347Z,55.6
2016-06-22T11:59:18.922Z,55.53
2016-06-22T12:00:18.306Z,55.24
2016-06-22T12:01:18.932Z,55.24
2016-06-22T12:02:18.925Z,55.89
2016-06-22T12:03:18.939Z,55.73
2016-06-22T12:04:18.956Z,55.73
2016-06-22T12:05:18.955Z,55.05
2016-06-22T12:06:18.352Z,55.43
2016-06-22T12:07:18.972Z,55.05
2016-06-22T12:08:19.282Z,55.05
2016-06-22T12:09:18.980Z,54.85
2016-06-22T12:10:19.003Z,55.15
2016-06-22T12:11:19.005Z,54.75
2016-06-22T12:12:19.008Z,54.85
2016-06-22T12:13:19.004Z,55.15
2016-06-22T12:15:18.391Z,55.05
2016-06-22T12:16:19.041Z,54.47
2016-06-22T12:17:18.410Z,54.66
2016-06-22T12:18:18.426Z,54.66
2016-06-22T12:19:18.721Z,54.85
2016-06-22T12:20:19.044Z,54.66
2016-06-22T12:21:18.430Z,54.75
2016-06-22T12:22:19.077Z,55.15
2016-06-22T12:23:19.077Z,55.43
2016-06-22T12:24:19.080Z,55.24
2016-06-22T12:25:19.083Z,55.34
2016-06-22T12:26:19.082Z,55.05
2016-06-22T12:27:18.475Z,55.34
2016-06-22T12:28:19.098Z,55.34
2016-06-22T12:29:19.117Z,55.15
2016-06-22T12:30:19.119Z,55.15
2016-06-22T12:31:18.502Z,54.95
2016-06-22T12:32:20.182Z,55.05
2016-06-22T12:33:18.518Z,55.15
2016-06-22T12:34:18.533Z,55.63
2016-06-22T12:35:18.534Z,55.63
2016-06-22T12:36:18.540Z,55.43
2016-06-22T12:37:19.154Z,55.63
2016-06-22T12:38:18.543Z,55.34
2016-06-22T12:39:19.171Z,55.43
2016-06-22T12:40:18.563Z,55.34
2016-06-22T12:41:19.186Z,55.43
2016-06-22T12:42:18.583Z,55.53
2016-06-22T12:43:20.154Z,55.15
2016-06-22T12:44:19.215Z,55.34
2016-06-22T12:45:19.222Z,55.63
2016-06-22T12:46:19.220Z,55.43
2016-06-22T12:47:19.225Z,56.11
2016-06-22T12:48:19.233Z,55.92
2016-06-22T12:49:19.235Z,55.73
2016-06-22T12:50:19.255Z,55.82
2016-06-22T12:51:18.646Z,55.63
2016-06-22T12:52:18.644Z,55.92
2016-06-22T12:53:19.271Z,55.92
2016-06-22T12:54:19.569Z,56.11
2016-06-22T12:55:19.282Z,55.53
2016-06-22T12:56:18.673Z,55.73